Time;durP1;ratioP1;P1;durP2;ratioP2;P2;SDS_P1;SDS_P2;PMS_P1;PMS_P2;Temp;Humidity;BMP_temperature;BMP_pressure;BME280_temperature;BME280_humidity;BME280_pressure;Samples;Min_cycle;Max_cycle;Signal;HPM_P1;HPM_P2
2022/03/13 00:01:06;;;;;;;3.38;2.20;;;;;;;-142.75;100.00;77330.19;5011196;28;20030;-68
2022/03/13 00:03:32;;;;;;;3.85;2.47;;;;;;;-142.75;100.00;77336.09;5029331;28;20021;-68
2022/03/13 00:05:58;;;;;;;3.42;2.10;;;;;;;-142.75;100.00;77349.88;5023447;28;20037;-69
2022/03/13 00:08:27;;;;;;;4.00;2.47;;;;;;;-142.75;100.00;77342.00;5018530;28;20053;-69
2022/03/13 00:11:07;;;;;;;3.42;2.15;;;;;;;-142.75;100.00;77353.81;5019752;28;20060;-70
2022/03/13 00:13:35;;;;;;;4.07;2.38;;;;;;;-142.75;100.00;77357.75;5010927;28;20037;-72
2022/03/13 00:16:07;;;;;;;4.45;2.40;;;;;;;-142.75;100.00;77359.72;5013722;28;20025;-69
2022/03/13 00:18:32;;;;;;;5.18;2.72;;;;;;;-142.75;100.00;77363.66;5030740;28;20023;-69
2022/03/13 00:20:59;;;;;;;3.40;2.28;;;;;;;-142.75;100.00;77365.63;5022820;28;20033;-69
2022/03/13 00:23:24;;;;;;;4.60;2.30;;;;;;;-142.75;100.00;77361.69;5010666;28;20125;-69
2022/03/13 00:25:49;;;;;;;3.50;2.33;;;;;;;-142.75;100.00;77361.69;5026612;28;20108;-69
2022/03/13 00:28:16;;;;;;;4.63;2.03;;;;;;;-142.75;100.00;77361.69;5030051;28;20029;-69
2022/03/13 00:30:42;;;;;;;4.65;2.58;;;;;;;-142.75;100.00;77361.69;5030592;28;20021;-68
2022/03/13 00:33:07;;;;;;;3.42;2.20;;;;;;;-142.75;100.00;77361.69;5028949;28;20159;-68
2022/03/13 00:35:33;;;;;;;3.40;2.17;;;;;;;-142.75;100.00;77349.88;5025981;28;20079;-70
2022/03/13 00:37:59;;;;;;;;;;;;;;;-142.75;100.00;77355.78;5031080;28;20036;-68
2022/03/13 00:40:26;;;;;;;5.15;3.25;;;;;;;-142.75;100.00;77343.97;5030057;28;19917;-67
2022/03/13 00:42:51;;;;;;;3.58;2.30;;;;;;;-142.75;100.00;77336.09;5045743;22;20037;-65
2022/03/13 00:45:16;;;;;;;4.97;2.20;;;;;;;-142.75;100.00;77355.78;5049439;28;20452;-65
2022/03/13 00:47:42;;;;;;;3.92;2.50;;;;;;;-142.75;100.00;77359.72;5050902;28;20098;-65
2022/03/13 00:50:08;;;;;;;6.60;2.30;;;;;;;-142.75;100.00;77343.97;5048279;28;20021;-66
2022/03/13 00:52:33;;;;;;;4.45;2.75;;;;;;;-142.75;100.00;77334.13;5019632;28;20045;-66
2022/03/13 00:54:58;;;;;;;5.35;2.53;;;;;;;-142.75;100.00;77334.13;5032014;28;20045;-66
2022/03/13 00:57:23;;;;;;;3.93;2.13;;;;;;;-142.75;100.00;77318.38;5031591;28;20067;-67
2022/03/13 00:59:49;;;;;;;4.90;2.55;;;;;;;-142.75;100.00;77314.44;5032097;28;20358;-67
2022/03/13 01:02:14;;;;;;;5.55;2.30;;;;;;;-142.75;100.00;77316.41;5032259;28;20075;-67
2022/03/13 01:04:40;;;;;;;6.07;2.35;;;;;;;-142.75;100.00;77322.31;5031246;28;20021;-67
2022/03/13 01:07:05;;;;;;;4.30;2.13;;;;;;;-142.75;100.00;77320.34;5029577;28;20034;-67
2022/03/13 01:09:30;;;;;;;3.80;2.37;;;;;;;-142.75;100.00;77322.31;5024165;28;20380;-67
2022/03/13 01:11:56;;;;;;;4.50;2.28;;;;;;;-142.75;100.00;77324.28;5032089;28;20290;-68
2022/03/13 01:14:23;;;;;;;5.32;2.45;;;;;;;-142.75;100.00;77324.28;5030822;28;20029;-68
2022/03/13 01:16:57;;;;;;;3.95;2.08;;;;;;;-142.75;100.00;77322.31;5030889;28;20033;-68
2022/03/13 01:19:23;;;;;;;5.50;2.70;;;;;;;-142.75;100.00;77322.31;5031686;28;20022;-68
2022/03/13 01:21:48;;;;;;;3.58;2.25;;;;;;;-142.75;100.00;77320.34;5031744;28;20761;-68
2022/03/13 01:24:13;;;;;;;4.82;2.15;;;;;;;-142.75;100.00;77326.25;5031918;28;20031;-68
2022/03/13 01:26:41;;;;;;;4.63;2.80;;;;;;;-142.75;100.00;77334.13;5031744;28;20634;-68
2022/03/13 01:29:10;;;;;;;3.60;2.22;;;;;;;-142.75;100.00;77330.19;5011758;28;20112;-69
2022/03/13 01:31:37;;;;;;;4.43;2.40;;;;;;;-142.75;100.00;77310.50;5010739;28;20022;-67
2022/03/13 01:34:05;;;;;;;3.85;2.28;;;;;;;-142.75;100.00;77310.50;5012002;28;20430;-68
2022/03/13 01:36:31;;;;;;;5.22;2.05;;;;;;;-142.75;100.00;77294.75;5030436;28;20022;-68
2022/03/13 01:38:58;;;;;;;4.32;2.47;;;;;;;-142.75;100.00;77302.63;5030258;28;20644;-67
2022/03/13 01:41:25;;;;;;;5.27;2.50;;;;;;;-142.75;100.00;77312.47;5029981;28;20029;-66
2022/03/13 01:43:50;;;;;;;4.75;2.15;;;;;;;-142.75;100.00;77314.44;5031348;28;20085;-67
2022/03/13 01:46:17;;;;;;;4.95;2.17;;;;;;;-142.75;100.00;77310.50;5031463;28;20145;-66
2022/03/13 01:48:52;;;;;;;3.95;2.38;;;;;;;-142.75;100.00;77302.63;5031099;28;20387;-69
2022/03/13 01:51:18;;;;;;;4.57;2.40;;;;;;;-142.75;100.00;77322.31;5031309;28;20026;-69
2022/03/13 01:53:44;;;;;;;4.13;2.33;;;;;;;-142.75;100.00;77314.44;5032468;28;20037;-69
2022/03/13 01:56:09;;;;;;;3.67;2.20;;;;;;;-142.75;100.00;77310.50;5022754;28;20025;-68
2022/03/13 01:58:34;;;;;;;3.25;2.20;;;;;;;-142.75;100.00;77306.56;5011300;28;20116;-67
2022/03/13 02:01:01;;;;;;;4.88;2.33;;;;;;;-142.75;100.00;77302.63;5011393;28;20030;-69
2022/03/13 02:03:27;;;;;;;3.42;2.33;;;;;;;-142.75;100.00;77292.78;5011356;28;20036;-68
2022/03/13 02:05:52;;;;;;;4.03;2.38;;;;;;;-142.75;100.00;77292.78;5018798;28;20036;-67
2022/03/13 02:08:20;;;;;;;3.45;1.90;;;;;;;-142.75;100.00;77304.59;5030860;28;20033;-67
2022/03/13 02:10:46;;;;;;;3.50;2.08;;;;;;;-142.75;100.00;77308.53;5029751;28;20503;-68
2022/03/13 02:13:16;;;;;;;4.72;2.30;;;;;;;-142.75;100.00;77296.72;5030989;28;20056;-68
2022/03/13 02:15:41;;;;;;;3.35;2.00;;;;;;;-142.75;100.00;77300.66;5030407;28;20025;-68
2022/03/13 02:18:07;;;;;;;4.57;2.25;;;;;;;-142.75;100.00;77308.53;5029310;28;20471;-68
2022/03/13 02:20:43;;;;;;;4.88;2.70;;;;;;;-142.75;100.00;77302.63;5030910;28;20398;-68
2022/03/13 02:23:23;;;;;;;4.30;2.00;;;;;;;-142.75;100.00;77306.56;5030706;28;20490;-68
2022/03/13 02:25:51;;;;;;;3.08;1.90;;;;;;;-142.75;100.00;77298.69;5029657;28;20040;-66
2022/03/13 02:28:19;;;;;;;3.17;1.95;;;;;;;-142.75;100.00;77312.47;5030473;28;20029;-67
2022/03/13 02:30:45;;;;;;;3.88;1.90;;;;;;;-142.75;100.00;77292.78;5029465;28;20030;-67
2022/03/13 02:33:11;;;;;;;3.00;1.75;;;;;;;-142.75;100.00;77290.81;5030929;28;20029;-68
2022/03/13 02:35:37;;;;;;;3.70;2.03;;;;;;;-142.75;100.00;77300.66;5030054;28;20125;-67
2022/03/13 02:38:02;;;;;;;3.35;2.28;;;;;;;-142.75;100.00;77294.75;5030356;28;20510;-68
2022/03/13 02:40:28;;;;;;;2.92;1.90;;;;;;;-142.75;100.00;77298.69;5030598;28;20036;-67
2022/03/13 02:42:57;;;;;;;3.53;1.98;;;;;;;-142.75;100.00;77296.72;5030492;28;20048;-68
2022/03/13 02:45:30;;;;;;;3.45;1.85;;;;;;;-142.75;100.00;77296.72;5030715;28;20045;-67
2022/03/13 02:47:55;;;;;;;4.03;2.40;;;;;;;-142.75;100.00;77294.75;5030301;28;20035;-67
2022/03/13 02:50:21;;;;;;;3.40;2.17;;;;;;;-142.75;100.00;77302.63;5030515;28;20033;-68
2022/03/13 02:52:46;;;;;;;3.53;2.30;;;;;;;-142.75;100.00;77300.66;5030559;28;20100;-67
2022/03/13 02:55:12;;;;;;;4.45;2.03;;;;;;;-142.75;100.00;77290.81;5029252;28;20028;-68
2022/03/13 02:57:39;;;;;;;4.32;2.30;;;;;;;-142.75;100.00;77294.75;5030673;28;20018;-68
2022/03/13 03:00:08;;;;;;;3.40;2.20;;;;;;;-142.75;100.00;77286.88;5030136;28;20075;-68
2022/03/13 03:02:33;;;;;;;6.88;2.40;;;;;;;-142.75;100.00;77298.69;5030373;28;20083;-67
2022/03/13 03:05:03;;;;;;;4.03;2.50;;;;;;;-142.75;100.00;77298.69;5030340;28;20398;-67
2022/03/13 03:07:29;;;;;;;4.55;2.60;;;;;;;-142.75;100.00;77306.56;5030313;28;20311;-67
2022/03/13 03:09:54;;;;;;;4.60;2.33;;;;;;;-142.75;100.00;77316.41;5030103;28;20427;-67
2022/03/13 03:12:19;;;;;;;4.43;2.47;;;;;;;-142.75;100.00;77324.28;5030491;28;20279;-67
2022/03/13 03:14:45;;;;;;;5.00;2.60;;;;;;;-142.75;100.00;77336.09;5029044;28;20285;-67
2022/03/13 03:17:10;;;;;;;4.40;2.47;;;;;;;-142.75;100.00;77351.84;5030277;28;20163;-67
2022/03/13 03:19:35;;;;;;;4.05;2.80;;;;;;;-142.75;100.00;77353.81;5014416;28;20395;-68
2022/03/13 03:22:01;;;;;;;4.10;2.72;;;;;;;-142.75;100.00;77357.75;5010596;28;20106;-67
2022/03/13 03:24:26;;;;;;;4.82;2.60;;;;;;;-142.75;100.00;77357.75;5010601;28;20018;-67
2022/03/13 03:26:55;;;;;;;4.47;2.50;;;;;;;-142.75;100.00;77357.75;5012909;28;20030;-67
2022/03/13 03:29:21;;;;;;;4.63;2.78;;;;;;;-142.75;100.00;77359.72;5013851;28;20030;-67
2022/03/13 03:31:48;;;;;;;4.80;2.63;;;;;;;-142.75;100.00;77357.75;5014167;28;20410;-68
2022/03/13 03:34:18;;;;;;;5.30;2.17;;;;;;;-142.75;100.00;77351.84;5013955;28;20388;-67
2022/03/13 03:36:52;;;;;;;4.07;2.20;;;;;;;-142.75;100.00;77361.69;5012813;28;20034;-68
2022/03/13 03:39:19;;;;;;;4.75;2.05;;;;;;;-142.75;100.00;77363.66;5013784;28;20026;-67
2022/03/13 03:41:46;;;;;;;3.50;2.15;;;;;;;-142.75;100.00;77365.63;5013715;28;20577;-67
2022/03/13 03:44:13;;;;;;;4.25;2.53;;;;;;;-142.75;100.00;77375.47;5013950;28;20395;-67
2022/03/13 03:46:39;;;;;;;4.07;2.20;;;;;;;-142.75;100.00;77369.56;5013659;28;20033;-68
2022/03/13 03:49:05;;;;;;;3.87;2.27;;;;;;;-142.75;100.00;77371.53;5013588;28;20500;-67
2022/03/13 03:51:30;;;;;;;3.67;2.13;;;;;;;-142.75;100.00;77375.47;5013640;28;20026;-67
2022/03/13 03:53:55;;;;;;;5.45;2.67;;;;;;;-142.75;100.00;77373.50;5013813;28;20037;-68
2022/03/13 03:56:21;;;;;;;4.40;2.45;;;;;;;-142.75;100.00;77377.44;5013635;28;20026;-67
2022/03/13 03:58:46;;;;;;;4.13;2.37;;;;;;;-142.75;100.00;77369.56;5013451;28;20068;-67
2022/03/13 04:01:11;;;;;;;3.33;2.10;;;;;;;-142.75;100.00;77377.44;5012129;28;20296;-67
2022/03/13 04:03:37;;;;;;;4.13;2.58;;;;;;;-142.75;100.00;77381.38;5013575;28;20283;-67
2022/03/13 04:06:02;;;;;;;4.65;2.40;;;;;;;-142.75;100.00;77381.38;5013551;28;20022;-67
2022/03/13 04:08:29;;;;;;;4.55;3.15;;;;;;;-142.75;100.00;77395.16;5032753;28;20075;-67
2022/03/13 04:10:55;;;;;;;5.03;2.80;;;;;;;-142.75;100.00;77393.19;5033237;28;20025;-67
2022/03/13 04:13:20;;;;;;;4.55;2.78;;;;;;;-142.75;100.00;77383.34;5033002;28;20026;-67
2022/03/13 04:15:45;;;;;;;4.30;2.77;;;;;;;-142.75;100.00;77387.28;5032928;28;20031;-67
2022/03/13 04:18:11;;;;;;;5.57;2.85;;;;;;;-142.75;100.00;77397.13;5032702;28;21025;-68
2022/03/13 04:20:36;;;;;;;14.00;2.90;;;;;;;-142.75;100.00;77395.16;5032989;28;20045;-68
2022/03/13 04:23:02;;;;;;;7.53;2.78;;;;;;;-142.75;100.00;77401.06;5032776;28;20064;-67
2022/03/13 04:25:28;;;;;;;6.15;2.92;;;;;;;-142.75;100.00;77406.97;5032882;28;20052;-67
2022/03/13 04:27:56;;;;;;;4.68;3.05;;;;;;;-142.75;100.00;77399.09;5032627;28;20021;-67
2022/03/13 04:30:21;;;;;;;9.30;3.17;;;;;;;-142.75;100.00;77408.94;5013030;28;20018;-67
2022/03/13 04:32:48;;;;;;;4.78;2.83;;;;;;;-142.75;100.00;77406.97;5011509;28;20061;-67
2022/03/13 04:35:14;;;;;;;4.93;2.90;;;;;;;-142.75;100.00;77403.03;5012954;28;20049;-67
2022/03/13 04:37:39;;;;;;;5.43;2.97;;;;;;;-142.75;100.00;77414.84;5010896;28;20606;-68
2022/03/13 04:40:05;;;;;;;5.30;3.33;;;;;;;-142.75;100.00;77418.78;5011334;28;20117;-67
2022/03/13 04:42:30;;;;;;;;;;;;;;;-142.75;100.00;77430.59;5013012;28;20077;-68
2022/03/13 04:44:56;;;;;;;5.93;3.30;;;;;;;-142.75;100.00;77426.66;5011522;28;19953;-68
2022/03/13 04:47:21;;;;;;;5.45;2.80;;;;;;;-142.75;100.00;77440.44;5011534;28;20112;-68
2022/03/13 04:49:46;;;;;;;4.53;2.90;;;;;;;-142.75;100.00;77440.44;5012347;28;20055;-67
2022/03/13 04:52:12;;;;;;;4.50;2.55;;;;;;;-142.75;100.00;77444.38;5012568;28;20514;-68
2022/03/13 04:54:37;;;;;;;5.93;2.40;;;;;;;-142.75;100.00;77454.25;5032103;28;20032;-68
2022/03/13 04:57:03;;;;;;;4.60;2.15;;;;;;;-142.75;100.00;77454.25;5032484;28;20017;-68
2022/03/13 04:59:28;;;;;;;3.92;2.42;;;;;;;-142.75;100.00;77458.16;5025086;28;20033;-68
2022/03/13 05:01:53;;;;;;;4.00;2.25;;;;;;;-142.75;100.00;77456.22;5032312;28;20531;-67
2022/03/13 05:04:19;;;;;;;4.07;2.45;;;;;;;-142.75;100.00;77458.16;5032252;28;20112;-68
2022/03/13 05:06:45;;;;;;;4.32;1.88;;;;;;;-142.75;100.00;77456.22;5032303;28;20108;-66
2022/03/13 05:09:10;;;;;;;4.78;2.38;;;;;;;-142.75;100.00;77464.09;5031819;28;20395;-68
2022/03/13 05:11:36;;;;;;;3.50;2.00;;;;;;;-142.75;100.00;77471.97;5030577;28;20018;-67
2022/03/13 05:14:01;;;;;;;3.95;2.00;;;;;;;-142.75;100.00;77466.03;5032080;28;20056;-67
2022/03/13 05:16:26;;;;;;;3.80;1.85;;;;;;;-142.75;100.00;77460.13;5029946;28;20056;-67
2022/03/13 05:18:51;;;;;;;3.40;1.80;;;;;;;-142.75;100.00;77466.03;5030242;28;20071;-67
2022/03/13 05:21:18;;;;;;;4.47;1.92;;;;;;;-142.75;100.00;77468.03;5031679;28;20518;-67
2022/03/13 05:23:43;;;;;;;4.07;1.92;;;;;;;-142.75;100.00;77475.91;5031852;28;20029;-66
2022/03/13 05:26:09;;;;;;;3.72;2.10;;;;;;;-142.75;100.00;77470.00;5031424;28;20391;-67
2022/03/13 05:28:35;;;;;;;3.63;1.98;;;;;;;-142.75;100.00;77471.97;5031378;28;20053;-67
2022/03/13 05:31:01;;;;;;;6.00;2.17;;;;;;;-142.75;100.00;77481.81;5031596;28;20028;-67
2022/03/13 05:33:26;;;;;;;3.17;1.35;;;;;;;-142.75;100.00;77487.72;5031458;28;20430;-67
2022/03/13 05:35:51;;;;;;;3.07;1.33;;;;;;;-142.75;100.00;77475.91;5031557;28;20108;-67
2022/03/13 05:38:17;;;;;;;2.53;1.60;;;;;;;-142.75;100.00;77475.91;5031196;28;20643;-67
2022/03/13 05:40:42;;;;;;;2.43;1.60;;;;;;;-142.75;100.00;77468.03;5031237;28;20032;-67
2022/03/13 05:43:09;;;;;;;3.22;1.48;;;;;;;-142.75;100.00;77475.91;5031263;28;20650;-67
2022/03/13 05:45:36;;;;;;;2.87;1.10;;;;;;;-142.75;100.00;77475.91;5031306;28;20098;-67
2022/03/13 05:48:08;;;;;;;4.20;1.50;;;;;;;-142.75;100.00;77481.81;5030966;28;20036;-67
2022/03/13 05:50:33;;;;;;;2.43;1.33;;;;;;;-142.75;100.00;77485.75;5030330;28;20491;-67
2022/03/13 05:52:59;;;;;;;3.38;1.55;;;;;;;-142.75;100.00;77487.72;5031193;28;20108;-67
2022/03/13 05:55:28;;;;;;;2.17;1.25;;;;;;;-142.75;100.00;77487.72;5031121;28;20021;-67
2022/03/13 05:57:55;;;;;;;2.30;1.20;;;;;;;-142.75;100.00;77487.72;5029647;28;20025;-68
2022/03/13 06:00:22;;;;;;;2.70;1.60;;;;;;;-142.75;100.00;77495.59;5029766;28;20400;-67
2022/03/13 06:02:47;;;;;;;3.23;1.20;;;;;;;-142.75;100.00;77501.50;5030916;28;20108;-67
2022/03/13 06:05:15;;;;;;;2.35;1.23;;;;;;;-142.75;100.00;77499.53;5031088;28;20144;-67
2022/03/13 06:07:40;;;;;;;3.03;1.53;;;;;;;-142.75;100.00;77495.59;5030882;28;20036;-67
2022/03/13 06:10:08;;;;;;;2.80;1.38;;;;;;;-142.75;100.00;77507.41;5029520;28;20025;-67
2022/03/13 06:12:34;;;;;;;4.67;2.13;;;;;;;-142.75;100.00;77515.28;5030867;28;20487;-67
2022/03/13 06:15:00;;;;;;;;;;;;;;;-142.75;100.00;77519.22;5031429;28;20517;-67
2022/03/13 06:17:26;;;;;;;2.40;1.63;;;;;;;-142.75;100.00;77523.16;5030817;28;20087;-66
2022/03/13 06:19:52;;;;;;;3.60;1.80;;;;;;;-142.75;100.00;77534.97;5030643;28;20033;-67
2022/03/13 06:22:19;;;;;;;3.67;1.63;;;;;;;-142.75;100.00;77544.81;5029767;28;20044;-68
2022/03/13 06:24:45;;;;;;;3.97;1.73;;;;;;;-142.75;100.00;77546.78;5029685;28;20033;-66
2022/03/13 06:27:11;;;;;;;;;;;;;;;-142.75;100.00;77546.78;5031204;28;20053;-66
2022/03/13 06:29:38;;;;;;;6.43;2.33;;;;;;;-142.75;100.00;77546.78;5030604;28;19917;-67
2022/03/13 06:32:04;;;;;;;4.70;2.10;;;;;;;-142.75;100.00;77540.88;5030630;28;20479;-69
2022/03/13 06:34:29;;;;;;;3.70;1.77;;;;;;;-142.75;100.00;77552.69;5029062;28;20032;-66
2022/03/13 06:36:55;;;;;;;4.30;2.30;;;;;;;-142.75;100.00;77556.63;5030586;28;20022;-66
2022/03/13 06:39:20;;;;;;;3.47;1.95;;;;;;;-142.75;100.00;77554.66;5029146;28;20274;-66
2022/03/13 06:41:45;;;;;;;3.55;2.50;;;;;;;-142.75;100.00;77556.63;5049647;22;20042;-70
2022/03/13 06:44:10;;;;;;;4.28;2.22;;;;;;;-142.75;100.00;77556.63;5044973;28;20072;-67
2022/03/13 06:46:36;;;;;;;3.97;2.58;;;;;;;-142.75;100.00;77548.75;5049423;28;20082;-70
2022/03/13 06:49:05;;;;;;;4.70;2.67;;;;;;;-142.75;100.00;77558.59;5045417;28;20032;-67
2022/03/13 06:51:33;;;;;;;4.20;2.20;;;;;;;-142.75;100.00;77560.56;5032064;28;20021;-68
2022/03/13 06:53:59;;;;;;;6.47;3.27;;;;;;;-142.75;100.00;77556.63;5050391;28;20024;-68
2022/03/13 06:56:25;;;;;;;5.47;2.25;;;;;;;-142.75;100.00;77554.66;5044447;28;20021;-68
2022/03/13 06:58:50;;;;;;;4.15;2.00;;;;;;;-142.75;100.00;77560.56;5030177;28;20033;-67
2022/03/13 07:01:16;;;;;;;7.72;3.22;;;;;;;-142.75;100.00;77570.41;5041890;28;20028;-67
2022/03/13 07:03:42;;;;;;;6.13;2.80;;;;;;;-142.75;100.00;77586.16;5047771;28;20029;-68
2022/03/13 07:06:07;;;;;;;;;;;;;;;-142.75;100.00;77578.28;5034741;28;20506;-66
2022/03/13 07:08:33;;;;;;;5.47;3.00;;;;;;;-142.75;100.00;77580.25;5035443;28;19913;-68
2022/03/13 07:11:02;;;;;;;5.45;3.17;;;;;;;-142.75;100.00;77578.28;5045383;28;20017;-68
2022/03/13 07:13:34;;;;;;;6.20;3.30;;;;;;;-142.75;100.00;77578.28;5041737;28;20040;-67
2022/03/13 07:16:03;;;;;;;4.73;3.00;;;;;;;-142.75;100.00;77594.03;5041332;28;20028;-67
2022/03/13 07:18:30;;;;;;;6.30;2.90;;;;;;;-142.75;100.00;77592.06;5042037;28;20025;-67
2022/03/13 07:20:57;;;;;;;7.67;3.70;;;;;;;-142.75;100.00;77586.16;5032900;28;20061;-69
2022/03/13 07:23:22;;;;;;;8.77;3.42;;;;;;;-142.75;100.00;77590.09;5037135;28;20521;-67
2022/03/13 07:25:49;;;;;;;8.68;3.85;;;;;;;-142.75;100.00;77582.22;5046897;28;20024;-67
2022/03/13 07:28:14;;;;;;;7.63;3.77;;;;;;;-142.75;100.00;77580.25;5045446;28;20530;-67
2022/03/13 07:30:39;;;;;;;8.25;3.30;;;;;;;-142.75;100.00;77574.34;5033831;28;20029;-68
2022/03/13 07:33:05;;;;;;;7.60;3.70;;;;;;;-142.75;100.00;77568.44;5039170;28;20028;-68
2022/03/13 07:35:30;;;;;;;6.50;3.37;;;;;;;-142.75;100.00;77558.59;5048090;28;20280;-68
2022/03/13 07:37:55;;;;;;;7.05;3.67;;;;;;;-142.75;100.00;77558.59;5051155;28;20263;-70
2022/03/13 07:40:21;;;;;;;8.07;3.53;;;;;;;-142.75;100.00;77546.78;5033633;28;20035;-70
2022/03/13 07:42:47;;;;;;;7.93;3.83;;;;;;;-142.75;100.00;77538.91;5032154;28;20029;-70
2022/03/13 07:45:13;;;;;;;8.07;3.42;;;;;;;-142.75;100.00;77533.00;5033708;28;20472;-71
2022/03/13 07:47:38;;;;;;;5.35;3.55;;;;;;;-142.75;100.00;77497.56;5033620;28;20041;-68
2022/03/13 07:50:04;;;;;;;8.35;4.05;;;;;;;-142.75;100.00;77477.88;5032143;28;20021;-68
2022/03/13 07:52:29;;;;;;;9.98;4.20;;;;;;;-142.75;100.00;77466.03;5050397;28;20048;-68
2022/03/13 07:54:54;;;;;;;10.13;4.10;;;;;;;-142.75;100.00;77450.28;5053762;28;20055;-68
2022/03/13 07:57:20;;;;;;;9.33;4.77;;;;;;;-142.75;100.00;77405.00;5047895;28;20123;-68
2022/03/13 07:59:47;;;;;;;8.70;4.17;;;;;;;-142.75;100.00;77365.63;5039775;28;20280;-71
2022/03/13 08:02:13;;;;;;;10.17;4.73;;;;;;;-142.75;100.00;77365.63;5030461;28;20032;-69
2022/03/13 08:04:38;;;;;;;8.20;3.97;;;;;;;-142.75;100.00;77375.47;5042617;28;20021;-68
2022/03/13 08:07:04;;;;;;;8.85;5.18;;;;;;;-142.75;100.00;77401.06;5051782;28;20085;-68
2022/03/13 08:09:29;;;;;;;9.75;3.95;;;;;;;-142.75;100.00;77393.19;5052837;28;20031;-69
2022/03/13 08:11:54;;;;;;;14.15;4.68;;;;;;;-142.75;100.00;77383.34;5051297;28;20406;-68
2022/03/13 08:14:20;;;;;;;9.82;4.28;;;;;;;-142.75;100.00;77385.31;5046418;28;20529;-68
2022/03/13 08:16:45;;;;;;;11.93;4.90;;;;;;;-142.75;100.00;77381.38;5033133;28;20025;-68
2022/03/13 08:19:10;;;;;;;9.00;4.73;;;;;;;-142.75;100.00;77310.50;5040134;28;20741;-70
2022/03/13 08:21:37;;;;;;;9.10;4.53;;;;;;;-142.75;100.00;77261.28;5052241;28;20287;-69
2022/03/13 08:24:05;;;;;;;9.98;4.65;;;;;;;-142.75;100.00;77219.94;5051986;28;20490;-70
2022/03/13 08:26:31;;;;;;;6.05;3.70;;;;;;;-142.75;100.00;77204.19;5052171;28;20020;-70
2022/03/13 08:28:57;;;;;;;8.75;4.03;;;;;;;-142.75;100.00;77176.63;5051684;28;20525;-68
2022/03/13 08:31:22;;;;;;;8.55;4.85;;;;;;;-142.75;100.00;77156.94;5052200;28;20110;-67
2022/03/13 08:33:47;;;;;;;8.20;4.38;;;;;;;-142.75;100.00;77127.41;5051983;28;20500;-71
2022/03/13 08:36:13;;;;;;;10.50;4.80;;;;;;;-142.75;100.00;77107.72;5034987;28;20037;-66
2022/03/13 08:38:39;;;;;;;;;;;;;;;-142.75;100.00;77101.81;5032190;28;20026;-68
2022/03/13 08:41:04;;;;;;;8.07;4.47;;;;;;;-142.75;100.00;77076.22;5031998;28;19917;-67
2022/03/13 08:43:30;;;;;;;8.10;4.07;;;;;;;-142.75;100.00;77052.59;5045672;28;20032;-68
2022/03/13 08:46:00;;;;;;;6.57;3.83;;;;;;;-142.75;100.00;77046.69;5051821;28;20051;-69
2022/03/13 08:48:25;;;;;;;9.60;5.03;;;;;;;-142.75;100.00;77066.38;5040439;28;20056;-69
2022/03/13 08:50:50;;;;;;;9.85;4.88;;;;;;;-142.75;100.00;77036.84;5042908;28;20475;-68
2022/03/13 08:53:16;;;;;;;9.05;4.50;;;;;;;-142.75;100.00;77027.00;5026752;28;20032;-69
2022/03/13 08:55:41;;;;;;;6.57;4.07;;;;;;;-142.75;100.00;77007.31;5041424;28;20053;-69
2022/03/13 08:58:06;;;;;;;7.47;4.05;;;;;;;-142.75;100.00;76975.81;5029195;28;20032;-68
2022/03/13 09:00:37;;;;;;;8.15;4.57;;;;;;;-142.75;100.00;76981.72;5029292;28;20039;-69
2022/03/13 09:03:02;;;;;;;9.90;4.70;;;;;;;-142.75;100.00;76975.81;5034444;28;20103;-69
2022/03/13 09:05:28;;;;;;;8.98;4.57;;;;;;;-142.75;100.00;76962.03;5049937;28;20124;-69
2022/03/13 09:07:53;;;;;;;10.48;4.43;;;;;;;-142.75;100.00;76948.25;5049736;28;20457;-69
2022/03/13 09:10:20;;;;;;;6.40;3.90;;;;;;;-142.75;100.00;76938.41;5047395;28;20546;-69
2022/03/13 09:12:45;;;;;;;11.82;6.07;;;;;;;-142.75;100.00;76926.59;5029882;28;20034;-68
2022/03/13 09:15:11;;;;;;;8.88;4.88;;;;;;;-142.75;100.00;76916.75;5030525;28;20104;-69
2022/03/13 09:17:36;;;;;;;11.05;4.55;;;;;;;-142.75;100.00;76901.00;5030199;28;20411;-71
2022/03/13 09:20:04;;;;;;;9.48;4.25;;;;;;;-142.75;100.00;76869.50;5030409;28;20115;-69
2022/03/13 09:22:30;;;;;;;9.20;4.40;;;;;;;-142.75;100.00;76834.06;5028993;28;20112;-69
2022/03/13 09:24:57;;;;;;;16.70;4.75;;;;;;;-142.75;100.00;76830.13;5030011;28;20021;-69
2022/03/13 09:27:24;;;;;;;6.95;3.53;;;;;;;-142.75;100.00;76820.28;5028717;28;20095;-68
2022/03/13 09:29:49;;;;;;;7.00;3.88;;;;;;;-142.75;100.00;76816.34;5029971;28;20032;-69
2022/03/13 09:32:15;;;;;;;6.85;3.72;;;;;;;-142.75;100.00;76816.34;5044711;28;20025;-69
2022/03/13 09:34:40;;;;;;;;;;;;;;;-142.75;100.00;76806.50;5050097;28;20032;-69
2022/03/13 09:37:05;;;;;;;8.27;3.88;;;;;;;-142.75;100.00;76800.63;5049625;28;19917;-69
2022/03/13 09:39:30;;;;;;;7.18;3.15;;;;;;;-142.75;100.00;76845.88;5038827;28;20032;-68
2022/03/13 09:41:56;;;;;;;10.27;3.50;;;;;;;-142.75;100.00;76873.44;5030900;28;20025;-69
2022/03/13 09:44:22;;;;;;;;;;;;;;;-142.75;100.00;76832.09;5037488;28;20029;-68
2022/03/13 09:46:47;;;;;;;7.25;3.88;;;;;;;-142.75;100.00;76780.94;5034606;28;19947;-69
2022/03/13 09:49:15;;;;;;;;;;;;;;;-142.75;100.00;76806.50;5029900;28;20104;-68
2022/03/13 09:51:40;;;;;;;8.20;4.10;;;;;;;-142.75;100.00;76782.91;5028870;28;20401;-69
2022/03/13 09:54:06;;;;;;;7.32;3.22;;;;;;;-142.75;100.00;76761.25;5039222;28;20029;-70
2022/03/13 09:56:34;;;;;;;6.45;3.58;;;;;;;-142.75;100.00;76759.28;5049176;28;20150;-69
2022/03/13 09:58:59;;;;;;;7.75;3.75;;;;;;;-142.75;100.00;76757.31;5043916;28;20123;-68
2022/03/13 10:01:24;;;;;;;8.35;4.18;;;;;;;-142.75;100.00;76737.63;5040408;28;20554;-67
2022/03/13 10:03:49;;;;;;;;;;;;;;;-142.75;100.00;76723.84;5032163;28;20036;-70
2022/03/13 10:06:15;;;;;;;7.32;3.13;;;;;;;-142.75;100.00;76733.69;5045901;28;20368;-67
2022/03/13 10:08:40;;;;;;;;;;;;;;;-142.75;100.00;76717.94;5030511;28;20057;-70
2022/03/13 10:11:07;;;;;;;6.43;3.17;;;;;;;-142.75;100.00;76712.03;5040799;28;19952;-70
2022/03/13 10:13:45;;;;;;;9.07;3.88;;;;;;;-142.75;100.00;76700.22;5050254;28;20071;-69
2022/03/13 10:16:35;;;;;;;9.63;3.40;;;;;;;-142.75;100.00;76729.75;5037694;28;20025;-70
2022/03/13 10:19:17;;;;;;;8.65;3.85;;;;;;;-142.75;100.00;76715.97;5038990;28;20029;-69
2022/03/13 10:22:03;;;;;;;6.38;3.15;;;;;;;-142.75;99.92;76676.59;5035911;28;20033;-69
2022/03/13 10:24:29;;;;;;;7.40;3.50;;;;;;;-142.75;100.00;76637.22;5032364;28;20029;-69
2022/03/13 10:27:09;;;;;;;7.03;3.58;;;;;;;-142.75;100.00;76607.69;5038472;28;20083;-69
2022/03/13 10:29:35;;;;;;;8.27;3.65;;;;;;;-142.75;94.63;76641.16;5038092;28;20033;-71
2022/03/13 10:32:00;;;;;;;7.13;4.13;;;;;;;-142.75;96.09;76652.97;5046969;28;20025;-69
2022/03/13 10:34:26;;;;;;;;;;;;;;;-142.75;100.00;76627.38;5028722;28;20398;-69
2022/03/13 10:36:51;;;;;;;7.57;3.88;;;;;;;-142.75;97.19;76633.28;5025458;28;19913;-69
2022/03/13 10:39:20;;;;;;;8.82;3.45;;;;;;;-142.75;95.93;76629.34;5032239;28;20036;-70
2022/03/13 10:41:51;;;;;;;6.95;3.65;;;;;;;-142.75;96.95;76631.31;5033595;28;20025;-70
2022/03/13 10:44:18;;;;;;;7.50;3.78;;;;;;;-142.75;98.03;76609.66;5036899;28;20067;-74
2022/03/13 10:46:48;;;;;;;6.05;3.60;;;;;;;-142.75;94.63;76568.31;5040536;28;20045;-68
2022/03/13 10:49:14;;;;;;;6.38;3.28;;;;;;;-142.75;93.01;76554.53;5029258;28;20116;-70
2022/03/13 10:51:48;;;;;;;9.38;4.20;;;;;;;-142.75;90.88;76548.63;5036082;28;20056;-72
2022/03/13 10:54:31;;;;;;;7.28;3.35;;;;;;;-142.75;90.74;76528.97;5033175;28;20040;-70
2022/03/13 10:57:11;;;;;;;8.32;3.78;;;;;;;-142.75;90.98;76564.38;5031896;28;20048;-71
2022/03/13 10:59:40;;;;;;;8.45;3.63;;;;;;;-142.75;91.61;76562.41;5040172;28;20025;-70
2022/03/13 11:02:22;;;;;;;5.93;3.30;;;;;;;-142.75;90.05;76568.31;5049345;28;20021;-68
2022/03/13 11:04:55;;;;;;;6.78;3.58;;;;;;;-142.75;90.14;76613.59;5032313;28;20029;-68
2022/03/13 11:07:22;;;;;;;8.18;4.03;;;;;;;-142.75;91.13;76621.47;5040731;28;20029;-69
2022/03/13 11:09:48;;;;;;;9.15;4.00;;;;;;;-142.75;92.50;76637.22;5032269;28;20108;-69